Meteo Giornale » Osservazioni meteo Iran » Tehran-Mehrabad
ore: 15:30 - Osservazioni Meteo Tehran-Mehrabad
Lat. 35° 41' N Lon. 51° 21' E Alt. 1204 metri s.l.m.
35 °C
Sereno
Temp. 24 Ore
22 °C
37 °C
Sud-Est
14.8 Km/h
Dew point -1 °C
Umidità 10 %
Visibilità 10 Km
Il sole sorge alle ore 05:36
Il sole tramonta alle ore 18:32
| Data e Ora | Cielo e Fenomeni | T °C | DP °C | Um. % | Pres. hPa | Vis. km | Vento km/h | |
|---|---|---|---|---|---|---|---|---|
| Oggi h: 15:30 | Sereno | 35 | -1 | 10 | 1011 | 10 | SE 14.8 | |
| Oggi h: 14:30 | Sereno | 34 | 1 | 12 | 1012 | 10 | SE 18.5 | |
| Oggi h: 13:30 | Sereno | 33 | 3 | 15 | 1012 | 10 | S/SE 18.5 | |
| Oggi h: 12:30 | Sereno | 32 | 3 | 15 | 1013 | 10 | S 18.5 | |
| Oggi h: 11:30 | Sereno | 32 | 3 | 15 | 1013 | 10 | S/SE 11.1 | |
| Oggi h: 10:30 | Sereno | 30 | 4 | 19 | 1014 | 10 | O/SO 14.8 | |
| Oggi h: 09:30 | Sereno | 29 | 7 | 25 | 1014 | 10 | O 18.5 | |
| Oggi h: 08:30 | Sereno | 26 | 9 | 34 | 1013 | 10 | O 11.1 | |
| Oggi h: 07:30 | Sereno | 25 | 9 | 36 | 1013 | 10 | O 7.4 | |
| Oggi h: 06:30 | Sereno | 22 | 10 | 46 | 1013 | 10 | O/NO 18.5 | |
| Oggi h: 05:30 | Sereno | 22 | 9 | 43 | 1012 | 10 | O/NO 22.2 | |
| Oggi h: 04:30 | Sereno | 23 | 9 | 40 | 1012 | 10 | O/NO 14.8 | |
| Oggi h: 03:30 | Sereno | 23 | 10 | 43 | 1011 | 10 | O/NO 14.8 | |
| Oggi h: 02:30 | Sereno | 24 | 10 | 41 | 1011 | 10 | O/NO 14.8 | |
| Oggi h: 01:30 | Poco Nuvoloso | 25 | 9 | 36 | 1011 | 10 | O 18.5 | |
| Oggi h: 00:30 | Poco Nuvoloso | 28 | 7 | 26 | 1012 | 10 | O/NO 11.1 | |
| Ieri h: 23:30 | Poco Nuvoloso | 29 | 7 | 25 | 1012 | 10 | NO 11.1 | |
| Ieri h: 22:30 | Nuvoloso | 31 | 2 | 15 | 1012 | 10 | SO 11.1 | |
| Ieri h: 21:30 | Nuvoloso | 33 | -2 | 10 | 1011 | 10 | O/SO 18.5 | |
| Ieri h: 20:30 | Nuvoloso | 35 | -3 | 8 | 1010 | 10 | SE 18.5 | |
| Ieri h: 19:30 | Nuvoloso | 35 | -2 | 9 | 1010 | 10 | E/SE 14.8 | |
| Ieri h: 18:30 | Poco Nuvoloso | 36 | -2 | 8 | 1010 | 10 | SE 18.5 | |
| Ieri h: 17:30 | Poco Nuvoloso | 37 | -3 | 7 | 1010 | 10 | SE 25.9 | |



